Česky Dansk Deutsch English Español Suomi Français Magyar Italiano Nederlands norsk Polski Português svenska Türkçe

 

Het Weer

Uberaba (Brazilië)

05:00, 18 Julio 2016 (GMT)

NWNNE
WE
SWSSE
Home            
Uberaba Uberlandia Leite Lopes / Ribeir Sao Carlos Pirassununga Pocos De Caldas Bauru Campinas Aeroporto Goiania Aeroporto Anapolis Braz-Afb Gama Belo Horizonte Aeroporto Belo Horizonte Guarulhos Civ / Mil Brasilia Aeroporto Marte Civ / Mil Presidente Prudente Guaratingueta Sao Jose Dos Campo Sao Paulo/Congonhas Aeroporto Barbacena Resende Santos Aeroporto

Om een weerknop op uw website of weblog te plaatsen, copieer onderstaande code en plak die in uw pagina. In het eerste vakje staat HTML-code, in het tweede vakje UBB-code.


Add to Google

Details

Wind speed:1 bf, 3 kn, 1.5 m/s, 3.5 miles/h, 5.6 km/h
Wind direction:N, 350°
Visibilidad:Mayor de 10000 m, 10 km, 32800 ft, 6.2 miles
Clouds:CAVOC
Temperatura:9°C, 48°F
Punto de rocío:3°C, 37°F
Presión atmosférica :1021 hPa, 765.8 mmHg, 30.15 inHg, 1.008 atm
Humedad relativa:66.0 %
METAR:SBUR 180500Z 35003KT CAVOK 09/03 Q1021

Snelkoppelingen

Actuele weersinformatie van de hele wereld. Voeg locaties toe met het plus (+) symbool. Deze snelkoppelingen kunnen worden toegevoegd aan Google.

Lid van de Technetium groep

website free tracking
StatCounter NetStat W3C Validator

16-05-2022 11:49:13
astro.technetium.be money.technetium.be phote.technetium.be tafeltennistafel.technetium.be www.ligfiets.net